createdAt,value
2018-12-09T00:00:56.321Z,0.20
2018-12-09T00:03:22.510Z,0.20
2018-12-09T00:08:14.960Z,0.20
2018-12-09T00:10:41.155Z,0.33
2018-12-09T00:15:33.552Z,0.30
2018-12-09T00:17:59.825Z,0.30
2018-12-09T00:20:26.435Z,0.30
2018-12-09T00:22:52.638Z,0.20
2018-12-09T00:25:18.969Z,0.20
2018-12-09T00:30:12.134Z,0.20
2018-12-09T00:32:38.480Z,0.30
2018-12-09T00:35:04.959Z,0.23
2018-12-09T00:37:31.567Z,0.30
2018-12-09T00:39:57.756Z,0.30
2018-12-09T00:44:49.783Z,0.30
2018-12-09T00:47:16.070Z,0.20
2018-12-09T00:49:42.455Z,0.20
2018-12-09T00:52:08.637Z,0.20
2018-12-09T00:54:35.013Z,0.20
2018-12-09T00:59:27.448Z,0.30
2018-12-09T01:01:53.726Z,0.20
2018-12-09T01:06:45.995Z,0.20
2018-12-09T01:09:12.154Z,0.20
2018-12-09T01:11:38.559Z,0.20
2018-12-09T01:14:04.939Z,0.20
2018-12-09T01:16:31.315Z,0.20
2018-12-09T01:18:57.885Z,0.20
2018-12-09T01:21:24.162Z,0.10
2018-12-09T01:23:50.499Z,0.17
2018-12-09T01:28:43.027Z,0.30
2018-12-09T01:31:09.436Z,0.10
2018-12-09T01:33:36.123Z,0.10
2018-12-09T01:36:02.510Z,0.13
2018-12-09T01:38:28.802Z,0.20
2018-12-09T01:43:21.131Z,0.10
2018-12-09T01:45:47.355Z,0.10
2018-12-09T01:50:39.739Z,0.10
2018-12-09T01:56:03.015Z,0.10
2018-12-09T01:58:29.306Z,0.10
2018-12-09T02:00:56.811Z,0.10
2018-12-09T02:03:23.003Z,0.13
2018-12-09T02:05:49.113Z,0.10
2018-12-09T02:10:41.363Z,0.10
2018-12-09T02:13:07.665Z,0.10
2018-12-09T02:17:59.940Z,0.20
2018-12-09T02:20:26.399Z,0.03
2018-12-09T02:22:52.857Z,0.10
2018-12-09T02:25:19.161Z,0.17
2018-12-09T02:27:45.471Z,0.10
2018-12-09T02:30:11.956Z,0.10
2018-12-09T02:32:39.402Z,0.10
2018-12-09T02:35:05.696Z,0.10
2018-12-09T02:39:57.933Z,0.10
2018-12-09T02:42:24.180Z,0.10
2018-12-09T02:47:16.322Z,0.10
2018-12-09T02:49:42.661Z,0.13
2018-12-09T02:52:09.500Z,0.10
2018-12-09T02:54:35.774Z,0.10
2018-12-09T02:57:01.963Z,0.10
2018-12-09T02:59:28.419Z,0.17
2018-12-09T03:01:55.051Z,0.10
2018-12-09T03:04:22.187Z,0.00
2018-12-09T03:09:14.764Z,0.00
2018-12-09T03:11:40.976Z,0.10
2018-12-09T03:16:33.112Z,0.10
2018-12-09T03:18:59.404Z,0.10
2018-12-09T03:23:51.670Z,0.10
2018-12-09T03:26:17.843Z,0.10
2018-12-09T03:28:44.457Z,0.10
2018-12-09T03:31:11.260Z,0.20
2018-12-09T03:33:37.548Z,0.13
2018-12-09T03:36:04.919Z,0.17
2018-12-09T03:38:31.116Z,0.10
2018-12-09T03:40:57.182Z,0.10
2018-12-09T03:43:23.703Z,0.10
2018-12-09T03:45:50.110Z,0.30
2018-12-09T03:48:16.390Z,0.20
2018-12-09T03:53:08.601Z,0.20
2018-12-09T03:55:34.767Z,0.20
2018-12-09T04:00:27.689Z,0.30
2018-12-09T04:02:54.454Z,0.30
2018-12-09T04:07:46.979Z,0.20
2018-12-09T04:10:13.270Z,0.30
2018-12-09T04:12:39.854Z,0.30
2018-12-09T04:15:06.383Z,0.40
2018-12-09T04:17:32.683Z,0.40
2018-12-09T04:19:59.270Z,0.30
2018-12-09T04:22:25.603Z,0.30
2018-12-09T04:24:52.108Z,0.30
2018-12-09T04:27:18.735Z,0.40
2018-12-09T04:29:45.224Z,0.40
2018-12-09T04:32:11.666Z,0.40
2018-12-09T04:37:04.395Z,0.40
2018-12-09T04:39:30.700Z,0.40
2018-12-09T04:44:23.067Z,0.43
2018-12-09T04:46:49.166Z,0.50
2018-12-09T04:49:15.703Z,0.30
2018-12-09T04:51:52.668Z,0.33
2018-12-09T04:56:45.443Z,0.30
2018-12-09T04:59:17.513Z,0.30
2018-12-09T05:04:10.956Z,0.53
2018-12-09T05:06:37.334Z,0.40
2018-12-09T05:11:31.555Z,0.50
2018-12-09T05:13:57.728Z,0.40
2018-12-09T05:16:24.289Z,0.30
2018-12-09T05:18:50.506Z,0.40
2018-12-09T05:21:16.694Z,0.40
2018-12-09T05:26:09.210Z,0.40
2018-12-09T05:28:35.794Z,0.30
2018-12-09T05:31:02.402Z,0.43
2018-12-09T05:33:28.491Z,0.40
2018-12-09T05:35:54.931Z,0.40
2018-12-09T05:40:48.251Z,0.53
2018-12-09T05:43:14.512Z,0.50
2018-12-09T05:45:40.862Z,0.60
2018-12-09T05:48:07.071Z,0.43
2018-12-09T05:50:35.264Z,0.50
2018-12-09T05:53:08.323Z,0.40
2018-12-09T05:55:35.045Z,0.40
2018-12-09T05:58:01.646Z,0.47
2018-12-09T06:00:28.071Z,0.30
2018-12-09T06:02:55.870Z,0.40
2018-12-09T06:05:23.695Z,0.20
2018-12-09T06:07:50.659Z,0.50
2018-12-09T06:10:17.128Z,0.30
2018-12-09T06:12:43.418Z,0.30
2018-12-09T06:15:09.963Z,0.30
2018-12-09T06:17:36.278Z,0.40
2018-12-09T06:20:03.423Z,0.43
2018-12-09T06:24:55.712Z,0.50
2018-12-09T06:27:22.022Z,0.30
2018-12-09T06:29:48.979Z,0.50
2018-12-09T06:32:15.300Z,0.40
2018-12-09T06:34:41.879Z,0.60
2018-12-09T06:37:08.444Z,0.40
2018-12-09T06:39:34.639Z,0.30
2018-12-09T06:42:00.993Z,0.50
2018-12-09T06:46:54.001Z,0.40
2018-12-09T06:49:20.665Z,0.53
2018-12-09T06:54:13.884Z,0.60
2018-12-09T06:56:40.538Z,0.53
2018-12-09T06:59:07.419Z,0.60
2018-12-09T07:01:34.096Z,0.70
2018-12-09T07:04:00.965Z,0.40
2018-12-09T07:06:28.476Z,0.50
2018-12-09T07:08:55.214Z,0.40
2018-12-09T07:11:21.927Z,0.50
2018-12-09T07:13:48.814Z,0.40
2018-12-09T07:16:15.522Z,0.53
2018-12-09T07:18:42.090Z,0.47
2018-12-09T07:23:34.939Z,0.50
2018-12-09T07:26:01.588Z,0.30
2018-12-09T07:30:54.682Z,0.60
2018-12-09T07:33:21.369Z,0.50
2018-12-09T07:35:48.199Z,0.40
2018-12-09T07:38:14.842Z,0.50
2018-12-09T07:40:41.734Z,0.40
2018-12-09T07:43:08.043Z,0.67
2018-12-09T07:45:34.748Z,0.40
2018-12-09T07:48:01.129Z,0.63
2018-12-09T07:50:27.563Z,0.70
2018-12-09T07:52:53.883Z,0.40
2018-12-09T07:55:20.176Z,0.30
2018-12-09T07:57:46.625Z,0.70
2018-12-09T08:00:12.931Z,0.50
2018-12-09T08:02:39.263Z,0.67
2018-12-09T08:07:32.177Z,0.67
2018-12-09T08:09:58.450Z,0.60
2018-12-09T08:14:51.740Z,0.67
2018-12-09T08:17:17.988Z,0.80
2018-12-09T08:22:10.147Z,0.50
2018-12-09T08:24:36.438Z,0.80
2018-12-09T08:29:28.711Z,0.60
2018-12-09T08:31:54.996Z,0.67
2018-12-09T08:34:21.755Z,0.60
2018-12-09T08:36:48.177Z,0.90
2018-12-09T08:39:14.323Z,0.70
2018-12-09T08:41:40.932Z,0.77
2018-12-09T08:44:07.134Z,0.90
2018-12-09T08:46:33.308Z,0.80
2018-12-09T08:48:59.735Z,0.90
2018-12-09T08:51:25.890Z,0.57
2018-12-09T08:53:52.103Z,0.70
2018-12-09T08:58:44.357Z,0.73
2018-12-09T09:01:10.857Z,0.97
2018-12-09T09:06:02.954Z,0.90
2018-12-09T09:08:29.173Z,0.67
2018-12-09T09:13:21.360Z,0.87
2018-12-09T09:15:47.949Z,0.80
2018-12-09T09:18:14.472Z,0.90
2018-12-09T09:20:40.795Z,0.87
2018-12-09T09:23:07.137Z,0.60
2018-12-09T09:27:59.197Z,0.80
2018-12-09T09:30:26.129Z,1.00
2018-12-09T09:32:53.972Z,0.67
2018-12-09T09:35:20.295Z,0.80
2018-12-09T09:40:12.763Z,0.63
2018-12-09T09:42:39.029Z,0.50
2018-12-09T09:45:05.802Z,0.67
2018-12-09T09:47:32.108Z,0.53
2018-12-09T09:49:58.523Z,0.60
2018-12-09T09:54:50.629Z,0.73
2018-12-09T09:57:16.820Z,0.60
2018-12-09T09:59:43.183Z,0.67
2018-12-09T10:02:09.415Z,0.60
2018-12-09T10:04:35.831Z,0.70
2018-12-09T10:09:28.786Z,0.50
2018-12-09T10:11:55.066Z,0.60
2018-12-09T10:16:46.953Z,0.50
2018-12-09T10:19:13.130Z,0.30
2018-12-09T10:24:07.356Z,0.50
2018-12-09T10:26:36.639Z,0.57
2018-12-09T10:31:28.943Z,0.63
2018-12-09T10:33:55.206Z,0.60
2018-12-09T10:36:21.816Z,0.50
2018-12-09T10:38:48.072Z,0.80
2018-12-09T10:41:14.250Z,0.40
2018-12-09T10:46:07.463Z,0.50
2018-12-09T10:48:33.709Z,0.50
2018-12-09T10:51:00.171Z,0.63
2018-12-09T10:53:26.466Z,0.50
2018-12-09T10:55:52.665Z,0.50
2018-12-09T10:58:19.264Z,0.50
2018-12-09T11:00:51.998Z,0.43
2018-12-09T11:03:19.404Z,0.30
2018-12-09T11:05:45.611Z,0.37
2018-12-09T11:08:11.955Z,0.50
2018-12-09T11:10:38.616Z,0.53
2018-12-09T11:13:04.943Z,0.33
2018-12-09T11:15:31.267Z,0.30
2018-12-09T11:22:49.666Z,0.47
2018-12-09T11:25:16.069Z,0.43
2018-12-09T11:27:42.561Z,0.40
2018-12-09T11:30:09.277Z,0.30
2018-12-09T11:32:35.480Z,0.40
2018-12-09T11:35:02.124Z,0.47
2018-12-09T11:37:28.306Z,0.40
2018-12-09T11:39:54.675Z,0.60
2018-12-09T11:44:47.088Z,0.30
2018-12-09T11:47:13.188Z,0.40
2018-12-09T11:49:39.756Z,0.40
2018-12-09T11:52:06.026Z,0.40
2018-12-09T11:54:32.422Z,0.30
2018-12-09T11:59:24.509Z,0.40
2018-12-09T12:01:50.781Z,0.30
2018-12-09T12:04:17.294Z,0.30
2018-12-09T12:06:43.639Z,0.30
2018-12-09T12:09:10.281Z,0.27
2018-12-09T12:11:36.688Z,0.40
2018-12-09T12:14:03.085Z,0.33
2018-12-09T12:16:29.607Z,0.40
2018-12-09T12:21:21.859Z,0.30
2018-12-09T12:23:48.147Z,0.50
2018-12-09T12:28:41.349Z,0.27
2018-12-09T12:31:07.527Z,0.30
2018-12-09T12:33:33.943Z,0.43
2018-12-09T12:36:00.136Z,0.40
2018-12-09T12:38:26.341Z,0.50
2018-12-09T12:40:52.716Z,0.50
2018-12-09T12:43:19.179Z,0.30
2018-12-09T12:45:45.439Z,0.40
2018-12-09T12:50:37.479Z,0.37
2018-12-09T12:53:03.891Z,0.43
2018-12-09T12:55:30.442Z,0.47
2018-12-09T12:57:56.722Z,0.63
2018-12-09T13:00:23.167Z,0.30
2018-12-09T13:05:15.542Z,0.53
2018-12-09T13:07:41.808Z,0.80
2018-12-09T13:12:34.621Z,0.63
2018-12-09T13:15:01.718Z,0.50
2018-12-09T13:17:28.208Z,0.50
2018-12-09T13:19:54.507Z,0.50
2018-12-09T13:22:20.840Z,0.57
2018-12-09T13:27:13.308Z,0.60
2018-12-09T13:29:39.623Z,0.30
2018-12-09T13:32:13.160Z,0.67
2018-12-09T13:34:39.427Z,0.40
2018-12-09T13:37:05.602Z,0.50
2018-12-09T13:41:57.758Z,0.50
2018-12-09T13:44:24.064Z,0.60
2018-12-09T13:49:16.094Z,0.50
2018-12-09T13:51:42.390Z,0.50
2018-12-09T13:56:34.474Z,0.40
2018-12-09T13:59:00.745Z,0.50
2018-12-09T14:03:53.058Z,0.40
2018-12-09T14:06:19.336Z,0.40
2018-12-09T14:08:45.649Z,0.40
2018-12-09T14:11:11.941Z,0.30
2018-12-09T14:13:38.248Z,0.40
2018-12-09T14:18:30.350Z,0.30
2018-12-09T14:20:57.022Z,0.40
2018-12-09T14:23:23.888Z,0.40
2018-12-09T14:25:50.627Z,0.37
2018-12-09T14:28:17.301Z,0.50
2018-12-09T14:30:43.926Z,0.50
2018-12-09T14:33:11.174Z,0.50
2018-12-09T14:35:37.839Z,0.43
2018-12-09T14:38:05.635Z,0.70
2018-12-09T14:42:58.333Z,0.70
2018-12-09T14:45:25.001Z,1.20
2018-12-09T14:47:51.750Z,0.90
2018-12-09T14:50:18.512Z,0.77
2018-12-09T14:52:45.092Z,0.80
2018-12-09T14:55:12.028Z,0.70
2018-12-09T14:57:38.659Z,0.70
2018-12-09T15:00:06.212Z,0.70
2018-12-09T15:02:32.943Z,0.80
2018-12-09T15:04:59.614Z,0.70
2018-12-09T15:07:26.253Z,0.70
2018-12-09T15:12:20.075Z,0.63
2018-12-09T15:14:46.905Z,0.90
2018-12-09T15:19:39.772Z,0.63
2018-12-09T15:22:06.423Z,0.60
2018-12-09T15:24:41.173Z,0.60
2018-12-09T15:27:02.271Z,0.70
2018-12-09T15:29:28.939Z,0.60
2018-12-09T15:31:55.901Z,0.80
2018-12-09T15:34:22.540Z,0.60
2018-12-09T15:36:49.184Z,0.80
2018-12-09T15:39:16.199Z,0.57
2018-12-09T15:41:42.767Z,0.70
2018-12-09T15:44:09.421Z,0.60
2018-12-09T15:46:36.243Z,0.77
2018-12-09T15:49:02.919Z,0.70
2018-12-09T15:51:29.585Z,0.70
2018-12-09T15:56:23.734Z,1.00
2018-12-09T15:58:50.383Z,0.80
2018-12-09T16:03:43.234Z,1.00
2018-12-09T16:06:09.884Z,0.90
2018-12-09T16:08:36.747Z,0.73
2018-12-09T16:11:03.786Z,0.90
2018-12-09T16:13:30.455Z,0.90
2018-12-09T16:18:23.555Z,0.80
2018-12-09T16:20:50.130Z,0.67
2018-12-09T16:25:43.263Z,0.70
2018-12-09T16:28:09.915Z,1.00
2018-12-09T16:30:36.979Z,0.70
2018-12-09T16:33:03.628Z,0.50
2018-12-09T16:35:30.103Z,0.73
2018-12-09T16:40:23.107Z,0.60
2018-12-09T16:42:49.272Z,0.80
2018-12-09T16:45:15.614Z,0.67
2018-12-09T16:47:44.160Z,0.70
2018-12-09T16:50:10.477Z,0.70
2018-12-09T16:52:36.964Z,0.50
2018-12-09T16:55:04.111Z,0.80
2018-12-09T16:57:30.240Z,0.80
2018-12-09T17:02:22.515Z,0.70
2018-12-09T17:04:48.753Z,0.70
2018-12-09T17:09:41.284Z,1.00
2018-12-09T17:12:07.601Z,0.50
2018-12-09T17:16:59.867Z,0.60
2018-12-09T17:19:26.214Z,0.80
2018-12-09T17:24:18.566Z,0.60
2018-12-09T17:26:44.832Z,0.77
2018-12-09T17:29:11.614Z,0.60
2018-12-09T17:31:38.415Z,0.60
2018-12-09T17:34:05.058Z,0.60
2018-12-09T17:36:31.666Z,0.50
2018-12-09T17:38:58.036Z,0.53
2018-12-09T17:41:25.490Z,0.70
2018-12-09T17:43:51.909Z,0.60
2018-12-09T17:46:18.205Z,0.70
2018-12-09T17:51:10.743Z,0.70
2018-12-09T17:53:37.019Z,0.70
2018-12-09T17:58:29.056Z,0.63
2018-12-09T18:00:55.283Z,0.90
2018-12-09T18:05:47.658Z,0.80
2018-12-09T18:08:14.025Z,0.80
2018-12-09T18:13:06.216Z,0.63
2018-12-09T18:15:32.495Z,0.80
2018-12-09T18:20:24.883Z,0.60
2018-12-09T18:22:51.070Z,0.60
2018-12-09T18:25:17.558Z,0.60
2018-12-09T18:27:44.220Z,0.70
2018-12-09T18:30:10.501Z,0.80
2018-12-09T18:32:36.772Z,0.50
2018-12-09T18:35:04.538Z,0.70
2018-12-09T18:37:31.512Z,0.60
2018-12-09T18:39:57.798Z,0.60
2018-12-09T18:44:50.355Z,0.70
2018-12-09T18:47:16.894Z,0.67
2018-12-09T18:52:08.915Z,0.70
2018-12-09T18:54:35.212Z,0.80
2018-12-09T18:59:27.465Z,0.50
2018-12-09T19:01:53.699Z,0.60
2018-12-09T19:04:20.188Z,0.90
2018-12-09T19:06:46.379Z,0.87
2018-12-09T19:09:12.733Z,0.77
2018-12-09T19:14:04.891Z,0.73
2018-12-09T19:16:31.090Z,0.83
2018-12-09T19:18:57.819Z,0.70
2018-12-09T19:21:24.116Z,0.80
2018-12-09T19:23:50.422Z,0.63
2018-12-09T19:28:43.195Z,0.60
2018-12-09T19:31:09.443Z,0.77
2018-12-09T19:33:35.942Z,0.50
2018-12-09T19:36:02.377Z,0.70
2018-12-09T19:38:28.582Z,0.70
2018-12-09T19:40:54.934Z,0.60
2018-12-09T19:43:21.041Z,0.90
2018-12-09T19:45:47.403Z,0.70
2018-12-09T19:50:40.050Z,0.67
2018-12-09T19:53:06.232Z,0.80
2018-12-09T19:57:58.337Z,0.60
2018-12-09T20:00:24.660Z,0.70
2018-12-09T20:05:17.317Z,0.70
2018-12-09T20:07:43.973Z,0.67
2018-12-09T20:10:11.065Z,0.80
2018-12-09T20:12:38.050Z,0.70
2018-12-09T20:15:06.638Z,0.87
2018-12-09T20:17:34.193Z,0.60
2018-12-09T20:20:01.140Z,0.60
2018-12-09T20:24:54.698Z,0.70
2018-12-09T20:27:21.753Z,0.57
2018-12-09T20:29:48.604Z,0.60
2018-12-09T20:32:15.486Z,0.70
2018-12-09T20:34:42.142Z,0.70
2018-12-09T20:39:35.153Z,0.60
2018-12-09T20:42:01.815Z,0.50
2018-12-09T20:44:28.745Z,0.50
2018-12-09T20:46:56.098Z,0.70
2018-12-09T20:49:22.810Z,0.73
2018-12-09T20:51:49.766Z,0.67
2018-12-09T20:54:16.347Z,0.70
2018-12-09T20:56:43.057Z,0.73
2018-12-09T20:59:09.900Z,0.60
2018-12-09T21:01:36.614Z,0.70
2018-12-09T21:04:03.279Z,0.70
2018-12-09T21:08:56.291Z,0.60
2018-12-09T21:11:23.021Z,0.40
2018-12-09T21:13:50.828Z,0.60
2018-12-09T21:16:17.495Z,0.60
2018-12-09T21:18:44.199Z,0.43
2018-12-09T21:21:11.027Z,0.53
2018-12-09T21:23:37.645Z,0.63
2018-12-09T21:26:04.469Z,0.70
2018-12-09T21:28:31.235Z,0.60
2018-12-09T21:30:57.905Z,0.90
2018-12-09T21:33:24.884Z,0.63
2018-12-09T21:35:51.484Z,0.60
2018-12-09T21:38:18.157Z,0.50
2018-12-09T21:40:45.083Z,0.70
2018-12-09T21:43:11.810Z,0.50
2018-12-09T21:45:38.474Z,0.60
2018-12-09T21:48:05.335Z,0.80
2018-12-09T21:50:31.987Z,0.83
2018-12-09T21:52:58.662Z,1.10
2018-12-09T21:57:51.553Z,0.73
2018-12-09T22:00:18.327Z,0.70
2018-12-09T22:02:45.305Z,0.60
2018-12-09T22:05:11.954Z,0.87
2018-12-09T22:07:38.559Z,0.80
2018-12-09T22:10:05.885Z,0.90
2018-12-09T22:12:32.558Z,0.90
2018-12-09T22:14:59.236Z,0.70
2018-12-09T22:17:26.407Z,0.73
2018-12-09T22:19:53.050Z,0.70
2018-12-09T22:22:19.827Z,0.90
2018-12-09T22:27:12.733Z,0.93
2018-12-09T22:29:39.391Z,0.70
2018-12-09T22:34:32.202Z,0.67
2018-12-09T22:36:58.892Z,0.80
2018-12-09T22:39:25.786Z,0.70
2018-12-09T22:41:52.478Z,0.50
2018-12-09T22:44:19.136Z,0.90
2018-12-09T22:46:46.021Z,0.60
2018-12-09T22:49:12.660Z,0.60
2018-12-09T22:51:46.742Z,0.80
2018-12-09T22:54:13.491Z,0.60
2018-12-09T22:56:40.083Z,0.90
2018-12-09T22:59:07.042Z,1.10
2018-12-09T23:01:33.938Z,0.90
2018-12-09T23:04:00.693Z,0.70
2018-12-09T23:06:27.582Z,0.80
2018-12-09T23:08:54.276Z,1.20
2018-12-09T23:11:20.933Z,0.90
2018-12-09T23:13:47.911Z,1.20
2018-12-09T23:16:14.688Z,0.90
2018-12-09T23:18:41.364Z,1.03
2018-12-09T23:21:08.159Z,1.10
2018-12-09T23:23:34.751Z,0.90
2018-12-09T23:26:01.392Z,1.00
2018-12-09T23:30:54.494Z,1.27
2018-12-09T23:33:21.170Z,1.20
2018-12-09T23:38:19.873Z,1.30
2018-12-09T23:40:46.571Z,1.10
2018-12-09T23:43:13.416Z,1.00
2018-12-09T23:45:40.095Z,1.07
2018-12-09T23:48:11.565Z,0.87
2018-12-09T23:53:04.445Z,0.80
2018-12-09T23:55:31.155Z,0.97
